sensor_id;sensor_type;location;lat;lon;timestamp;P1;durP1;ratioP1;P2;durP2;ratioP2
65463;SDS011;52063;45.110;9.870;2023-03-02T00:00:40;5.03;;;3.40;;
65463;SDS011;52063;45.110;9.870;2023-03-02T00:03:07;4.15;;;3.42;;
65463;SDS011;52063;45.110;9.870;2023-03-02T00:05:33;4.03;;;3.38;;
65463;SDS011;52063;45.110;9.870;2023-03-02T00:08:00;3.73;;;3.17;;
65463;SDS011;52063;45.110;9.870;2023-03-02T00:10:26;4.03;;;3.40;;
65463;SDS011;52063;45.110;9.870;2023-03-02T00:12:52;3.30;;;3.00;;
65463;SDS011;52063;45.110;9.870;2023-03-02T00:15:17;3.63;;;3.20;;
65463;SDS011;52063;45.110;9.870;2023-03-02T00:17:43;3.33;;;3.00;;
65463;SDS011;52063;45.110;9.870;2023-03-02T00:20:08;3.53;;;3.22;;
65463;SDS011;52063;45.110;9.870;2023-03-02T00:22:35;3.50;;;3.20;;
65463;SDS011;52063;45.110;9.870;2023-03-02T00:25:02;3.67;;;3.20;;
65463;SDS011;52063;45.110;9.870;2023-03-02T00:27:28;5.43;;;2.92;;
65463;SDS011;52063;45.110;9.870;2023-03-02T00:29:54;3.50;;;3.20;;
65463;SDS011;52063;45.110;9.870;2023-03-02T00:32:20;3.72;;;3.00;;
65463;SDS011;52063;45.110;9.870;2023-03-02T00:34:45;3.25;;;2.92;;
65463;SDS011;52063;45.110;9.870;2023-03-02T00:37:11;2.90;;;2.70;;
65463;SDS011;52063;45.110;9.870;2023-03-02T00:39:36;3.80;;;3.33;;
65463;SDS011;52063;45.110;9.870;2023-03-02T00:42:02;3.40;;;3.10;;
65463;SDS011;52063;45.110;9.870;2023-03-02T00:44:27;3.40;;;3.10;;
65463;SDS011;52063;45.110;9.870;2023-03-02T00:46:53;3.33;;;3.03;;
65463;SDS011;52063;45.110;9.870;2023-03-02T00:49:18;5.50;;;3.07;;
65463;SDS011;52063;45.110;9.870;2023-03-02T00:51:44;2.90;;;2.70;;
65463;SDS011;52063;45.110;9.870;2023-03-02T00:54:09;3.27;;;2.97;;
65463;SDS011;52063;45.110;9.870;2023-03-02T00:56:35;3.77;;;3.00;;
65463;SDS011;52063;45.110;9.870;2023-03-02T00:59:06;3.33;;;2.70;;
65463;SDS011;52063;45.110;9.870;2023-03-02T01:01:36;3.05;;;2.83;;
65463;SDS011;52063;45.110;9.870;2023-03-02T01:04:02;2.90;;;2.70;;
65463;SDS011;52063;45.110;9.870;2023-03-02T01:06:28;3.47;;;3.20;;
65463;SDS011;52063;45.110;9.870;2023-03-02T01:08:53;3.40;;;3.10;;
65463;SDS011;52063;45.110;9.870;2023-03-02T01:11:19;3.20;;;2.90;;
65463;SDS011;52063;45.110;9.870;2023-03-02T01:13:46;4.37;;;2.90;;
65463;SDS011;52063;45.110;9.870;2023-03-02T01:16:12;3.05;;;2.85;;
65463;SDS011;52063;45.110;9.870;2023-03-02T01:18:38;3.10;;;2.90;;
65463;SDS011;52063;45.110;9.870;2023-03-02T01:21:05;2.90;;;2.65;;
65463;SDS011;52063;45.110;9.870;2023-03-02T01:23:37;3.20;;;3.00;;
65463;SDS011;52063;45.110;9.870;2023-03-02T01:26:03;3.33;;;2.90;;
65463;SDS011;52063;45.110;9.870;2023-03-02T01:28:28;3.23;;;2.93;;
65463;SDS011;52063;45.110;9.870;2023-03-02T01:30:54;2.90;;;2.70;;
65463;SDS011;52063;45.110;9.870;2023-03-02T01:33:19;3.07;;;2.70;;
65463;SDS011;52063;45.110;9.870;2023-03-02T01:35:45;3.00;;;2.70;;
65463;SDS011;52063;45.110;9.870;2023-03-02T01:38:11;4.17;;;2.23;;
65463;SDS011;52063;45.110;9.870;2023-03-02T01:40:37;3.22;;;2.80;;
65463;SDS011;52063;45.110;9.870;2023-03-02T01:43:05;3.47;;;2.43;;
65463;SDS011;52063;45.110;9.870;2023-03-02T01:48:08;3.20;;;2.70;;
65463;SDS011;52063;45.110;9.870;2023-03-02T01:50:34;3.67;;;3.27;;
65463;SDS011;52063;45.110;9.870;2023-03-02T01:53:00;3.20;;;2.80;;
65463;SDS011;52063;45.110;9.870;2023-03-02T01:55:27;3.00;;;2.70;;
65463;SDS011;52063;45.110;9.870;2023-03-02T01:57:54;3.30;;;3.00;;
65463;SDS011;52063;45.110;9.870;2023-03-02T02:00:23;2.75;;;2.55;;
65463;SDS011;52063;45.110;9.870;2023-03-02T02:02:52;3.67;;;3.05;;
65463;SDS011;52063;45.110;9.870;2023-03-02T02:05:22;2.80;;;2.60;;
65463;SDS011;52063;45.110;9.870;2023-03-02T02:07:49;2.90;;;2.70;;
65463;SDS011;52063;45.110;9.870;2023-03-02T02:10:15;3.42;;;3.05;;
65463;SDS011;52063;45.110;9.870;2023-03-02T02:12:40;2.93;;;2.70;;
65463;SDS011;52063;45.110;9.870;2023-03-02T02:15:06;3.42;;;2.92;;
65463;SDS011;52063;45.110;9.870;2023-03-02T02:17:32;3.10;;;2.80;;
65463;SDS011;52063;45.110;9.870;2023-03-02T02:27:59;2.90;;;2.70;;
65463;SDS011;52063;45.110;9.870;2023-03-02T02:30:27;3.20;;;3.00;;
65463;SDS011;52063;45.110;9.870;2023-03-02T02:32:53;3.30;;;3.00;;
65463;SDS011;52063;45.110;9.870;2023-03-02T02:35:21;2.90;;;2.70;;
65463;SDS011;52063;45.110;9.870;2023-03-02T02:37:50;3.45;;;3.20;;
65463;SDS011;52063;45.110;9.870;2023-03-02T02:40:20;3.03;;;2.78;;
65463;SDS011;52063;45.110;9.870;2023-03-02T02:43:01;3.33;;;3.03;;
65463;SDS011;52063;45.110;9.870;2023-03-02T02:45:27;3.23;;;2.93;;
65463;SDS011;52063;45.110;9.870;2023-03-02T02:47:53;2.85;;;2.65;;
65463;SDS011;52063;45.110;9.870;2023-03-02T02:50:21;3.67;;;2.75;;
65463;SDS011;52063;45.110;9.870;2023-03-02T02:52:50;3.00;;;2.80;;
65463;SDS011;52063;45.110;9.870;2023-03-02T02:55:20;3.13;;;2.80;;
65463;SDS011;52063;45.110;9.870;2023-03-02T02:57:53;4.10;;;3.03;;
65463;SDS011;52063;45.110;9.870;2023-03-02T03:00:21;3.00;;;2.70;;
65463;SDS011;52063;45.110;9.870;2023-03-02T03:02:49;3.00;;;2.80;;
65463;SDS011;52063;45.110;9.870;2023-03-02T03:05:18;2.90;;;2.70;;
65463;SDS011;52063;45.110;9.870;2023-03-02T03:07:43;3.75;;;2.97;;
65463;SDS011;52063;45.110;9.870;2023-03-02T03:10:10;3.23;;;2.97;;
65463;SDS011;52063;45.110;9.870;2023-03-02T03:12:40;3.30;;;2.80;;
65463;SDS011;52063;45.110;9.870;2023-03-02T03:15:07;3.10;;;2.88;;
65463;SDS011;52063;45.110;9.870;2023-03-02T03:17:33;3.10;;;2.78;;
65463;SDS011;52063;45.110;9.870;2023-03-02T03:20:00;3.20;;;2.90;;
65463;SDS011;52063;45.110;9.870;2023-03-02T03:22:36;3.23;;;2.93;;
65463;SDS011;52063;45.110;9.870;2023-03-02T03:25:03;2.63;;;2.42;;
65463;SDS011;52063;45.110;9.870;2023-03-02T03:27:29;3.83;;;2.92;;
65463;SDS011;52063;45.110;9.870;2023-03-02T03:29:55;2.70;;;2.50;;
65463;SDS011;52063;45.110;9.870;2023-03-02T03:32:21;3.30;;;3.00;;
65463;SDS011;52063;45.110;9.870;2023-03-02T03:34:49;2.97;;;2.70;;
65463;SDS011;52063;45.110;9.870;2023-03-02T03:37:21;3.95;;;2.78;;
65463;SDS011;52063;45.110;9.870;2023-03-02T03:39:48;2.75;;;2.55;;
65463;SDS011;52063;45.110;9.870;2023-03-02T03:42:15;2.80;;;2.60;;
65463;SDS011;52063;45.110;9.870;2023-03-02T03:44:41;3.43;;;2.77;;
65463;SDS011;52063;45.110;9.870;2023-03-02T03:47:06;2.63;;;2.43;;
65463;SDS011;52063;45.110;9.870;2023-03-02T03:49:32;3.33;;;2.47;;
65463;SDS011;52063;45.110;9.870;2023-03-02T03:51:57;2.97;;;2.77;;
65463;SDS011;52063;45.110;9.870;2023-03-02T03:54:23;4.73;;;2.80;;
65463;SDS011;52063;45.110;9.870;2023-03-02T03:56:49;2.90;;;2.70;;
65463;SDS011;52063;45.110;9.870;2023-03-02T03:59:17;2.90;;;2.70;;
65463;SDS011;52063;45.110;9.870;2023-03-02T04:01:52;2.90;;;2.60;;
65463;SDS011;52063;45.110;9.870;2023-03-02T04:04:22;2.77;;;2.57;;
65463;SDS011;52063;45.110;9.870;2023-03-02T04:06:50;6.60;;;3.00;;
65463;SDS011;52063;45.110;9.870;2023-03-02T04:09:16;3.00;;;2.70;;
65463;SDS011;52063;45.110;9.870;2023-03-02T04:11:46;2.65;;;2.45;;
65463;SDS011;52063;45.110;9.870;2023-03-02T04:14:13;3.05;;;2.10;;
65463;SDS011;52063;45.110;9.870;2023-03-02T04:16:39;2.83;;;2.57;;
65463;SDS011;52063;45.110;9.870;2023-03-02T04:19:06;2.78;;;2.58;;
65463;SDS011;52063;45.110;9.870;2023-03-02T04:21:38;2.55;;;2.35;;
65463;SDS011;52063;45.110;9.870;2023-03-02T04:24:05;4.63;;;2.17;;
65463;SDS011;52063;45.110;9.870;2023-03-02T04:26:31;3.13;;;2.65;;
65463;SDS011;52063;45.110;9.870;2023-03-02T04:28:57;4.37;;;2.60;;
65463;SDS011;52063;45.110;9.870;2023-03-02T04:31:23;2.47;;;2.15;;
65463;SDS011;52063;45.110;9.870;2023-03-02T04:33:51;2.63;;;2.42;;
65463;SDS011;52063;45.110;9.870;2023-03-02T04:36:17;2.33;;;2.13;;
65463;SDS011;52063;45.110;9.870;2023-03-02T04:38:45;2.70;;;2.50;;
65463;SDS011;52063;45.110;9.870;2023-03-02T04:41:11;3.45;;;2.25;;
65463;SDS011;52063;45.110;9.870;2023-03-02T04:43:36;2.63;;;2.20;;
65463;SDS011;52063;45.110;9.870;2023-03-02T04:46:02;2.83;;;2.47;;
65463;SDS011;52063;45.110;9.870;2023-03-02T04:48:27;4.80;;;2.70;;
65463;SDS011;52063;45.110;9.870;2023-03-02T04:50:53;2.20;;;2.00;;
65463;SDS011;52063;45.110;9.870;2023-03-02T04:53:18;2.92;;;2.45;;
65463;SDS011;52063;45.110;9.870;2023-03-02T04:55:44;2.77;;;2.30;;
65463;SDS011;52063;45.110;9.870;2023-03-02T04:58:09;2.10;;;1.90;;
65463;SDS011;52063;45.110;9.870;2023-03-02T05:00:35;3.90;;;2.40;;
65463;SDS011;52063;45.110;9.870;2023-03-02T05:03:01;2.20;;;2.00;;
65463;SDS011;52063;45.110;9.870;2023-03-02T05:05:28;2.47;;;2.27;;
65463;SDS011;52063;45.110;9.870;2023-03-02T05:07:54;2.90;;;2.70;;
65463;SDS011;52063;45.110;9.870;2023-03-02T05:10:20;2.10;;;2.00;;
65463;SDS011;52063;45.110;9.870;2023-03-02T05:12:46;2.30;;;2.10;;
65463;SDS011;52063;45.110;9.870;2023-03-02T05:15:36;2.10;;;2.00;;
65463;SDS011;52063;45.110;9.870;2023-03-02T05:18:06;4.33;;;2.10;;
65463;SDS011;52063;45.110;9.870;2023-03-02T05:20:33;2.47;;;2.28;;
65463;SDS011;52063;45.110;9.870;2023-03-02T05:23:00;2.33;;;2.10;;
65463;SDS011;52063;45.110;9.870;2023-03-02T05:25:27;4.47;;;2.25;;
65463;SDS011;52063;45.110;9.870;2023-03-02T05:27:54;2.60;;;2.40;;
65463;SDS011;52063;45.110;9.870;2023-03-02T05:30:21;2.43;;;2.30;;
65463;SDS011;52063;45.110;9.870;2023-03-02T05:32:47;2.60;;;2.40;;
65463;SDS011;52063;45.110;9.870;2023-03-02T05:35:13;2.30;;;2.10;;
65463;SDS011;52063;45.110;9.870;2023-03-02T05:37:39;4.17;;;2.20;;
65463;SDS011;52063;45.110;9.870;2023-03-02T05:40:10;2.65;;;2.30;;
65463;SDS011;52063;45.110;9.870;2023-03-02T05:42:38;2.50;;;2.30;;
65463;SDS011;52063;45.110;9.870;2023-03-02T05:45:05;2.30;;;2.10;;
65463;SDS011;52063;45.110;9.870;2023-03-02T05:47:31;3.47;;;2.30;;
65463;SDS011;52063;45.110;9.870;2023-03-02T05:49:57;2.73;;;2.40;;
65463;SDS011;52063;45.110;9.870;2023-03-02T05:52:23;2.40;;;2.20;;
65463;SDS011;52063;45.110;9.870;2023-03-02T05:54:49;2.50;;;2.30;;
65463;SDS011;52063;45.110;9.870;2023-03-02T05:57:15;2.50;;;2.30;;
65463;SDS011;52063;45.110;9.870;2023-03-02T05:59:41;1.83;;;1.73;;
65463;SDS011;52063;45.110;9.870;2023-03-02T06:02:07;2.40;;;2.20;;
65463;SDS011;52063;45.110;9.870;2023-03-02T06:04:32;3.83;;;2.40;;
65463;SDS011;52063;45.110;9.870;2023-03-02T06:06:58;2.50;;;2.23;;
65463;SDS011;52063;45.110;9.870;2023-03-02T06:09:23;2.40;;;2.20;;
65463;SDS011;52063;45.110;9.870;2023-03-02T06:11:49;3.90;;;2.10;;
65463;SDS011;52063;45.110;9.870;2023-03-02T06:14:14;1.80;;;1.70;;
65463;SDS011;52063;45.110;9.870;2023-03-02T06:16:39;2.23;;;2.07;;
65463;SDS011;52063;45.110;9.870;2023-03-02T06:19:05;2.35;;;2.15;;
65463;SDS011;52063;45.110;9.870;2023-03-02T06:21:30;3.10;;;2.10;;
65463;SDS011;52063;45.110;9.870;2023-03-02T06:23:56;2.20;;;2.00;;
65463;SDS011;52063;45.110;9.870;2023-03-02T06:26:21;3.50;;;2.00;;
65463;SDS011;52063;45.110;9.870;2023-03-02T06:28:47;2.25;;;1.90;;
65463;SDS011;52063;45.110;9.870;2023-03-02T06:31:12;2.10;;;1.90;;
65463;SDS011;52063;45.110;9.870;2023-03-02T06:33:37;2.70;;;2.50;;
65463;SDS011;52063;45.110;9.870;2023-03-02T06:36:03;2.77;;;2.00;;
65463;SDS011;52063;45.110;9.870;2023-03-02T06:38:28;3.97;;;2.07;;
65463;SDS011;52063;45.110;9.870;2023-03-02T06:40:54;2.27;;;2.07;;
65463;SDS011;52063;45.110;9.870;2023-03-02T06:43:20;2.25;;;2.05;;
65463;SDS011;52063;45.110;9.870;2023-03-02T06:45:45;5.03;;;2.10;;
65463;SDS011;52063;45.110;9.870;2023-03-02T06:48:11;3.97;;;2.53;;
65463;SDS011;52063;45.110;9.870;2023-03-02T06:50:36;4.28;;;3.97;;
65463;SDS011;52063;45.110;9.870;2023-03-02T06:53:02;4.50;;;4.10;;
65463;SDS011;52063;45.110;9.870;2023-03-02T06:55:28;4.93;;;4.43;;
65463;SDS011;52063;45.110;9.870;2023-03-02T06:57:53;4.40;;;4.00;;
65463;SDS011;52063;45.110;9.870;2023-03-02T07:00:19;4.10;;;3.80;;
65463;SDS011;52063;45.110;9.870;2023-03-02T07:02:50;4.00;;;3.50;;
65463;SDS011;52063;45.110;9.870;2023-03-02T07:05:16;3.30;;;3.10;;
65463;SDS011;52063;45.110;9.870;2023-03-02T07:07:42;3.55;;;3.25;;
65463;SDS011;52063;45.110;9.870;2023-03-02T07:10:08;3.43;;;3.13;;
65463;SDS011;52063;45.110;9.870;2023-03-02T07:12:34;3.60;;;3.30;;
65463;SDS011;52063;45.110;9.870;2023-03-02T07:15:00;3.20;;;3.00;;
65463;SDS011;52063;45.110;9.870;2023-03-02T07:17:25;3.28;;;2.97;;
65463;SDS011;52063;45.110;9.870;2023-03-02T07:19:51;4.13;;;2.67;;
65463;SDS011;52063;45.110;9.870;2023-03-02T07:22:16;2.87;;;2.67;;
65463;SDS011;52063;45.110;9.870;2023-03-02T07:24:42;3.73;;;2.97;;
65463;SDS011;52063;45.110;9.870;2023-03-02T07:27:07;3.30;;;3.00;;
65463;SDS011;52063;45.110;9.870;2023-03-02T07:29:33;3.50;;;3.00;;
65463;SDS011;52063;45.110;9.870;2023-03-02T07:31:58;3.30;;;3.00;;
65463;SDS011;52063;45.110;9.870;2023-03-02T07:34:24;3.53;;;2.88;;
65463;SDS011;52063;45.110;9.870;2023-03-02T07:36:50;3.60;;;3.30;;
65463;SDS011;52063;45.110;9.870;2023-03-02T07:39:16;4.65;;;3.60;;
65463;SDS011;52063;45.110;9.870;2023-03-02T07:41:41;4.97;;;4.07;;
65463;SDS011;52063;45.110;9.870;2023-03-02T07:44:07;7.15;;;4.53;;
65463;SDS011;52063;45.110;9.870;2023-03-02T07:46:33;5.35;;;4.85;;
65463;SDS011;52063;45.110;9.870;2023-03-02T07:48:58;5.60;;;5.10;;
65463;SDS011;52063;45.110;9.870;2023-03-02T07:51:24;5.40;;;4.90;;
65463;SDS011;52063;45.110;9.870;2023-03-02T07:53:50;6.28;;;5.35;;
65463;SDS011;52063;45.110;9.870;2023-03-02T07:56:15;7.37;;;5.87;;
65463;SDS011;52063;45.110;9.870;2023-03-02T07:58:41;6.78;;;6.18;;
65463;SDS011;52063;45.110;9.870;2023-03-02T08:01:06;8.10;;;7.03;;
65463;SDS011;52063;45.110;9.870;2023-03-02T08:03:33;8.55;;;7.38;;
65463;SDS011;52063;45.110;9.870;2023-03-02T08:06:03;8.15;;;7.10;;
65463;SDS011;52063;45.110;9.870;2023-03-02T08:08:32;9.98;;;8.45;;
65463;SDS011;52063;45.110;9.870;2023-03-02T08:11:11;8.40;;;7.60;;
65463;SDS011;52063;45.110;9.870;2023-03-02T08:13:37;9.48;;;8.48;;
65463;SDS011;52063;45.110;9.870;2023-03-02T08:16:04;9.37;;;8.53;;
65463;SDS011;52063;45.110;9.870;2023-03-02T08:18:31;10.93;;;9.80;;
65463;SDS011;52063;45.110;9.870;2023-03-02T08:20:57;10.60;;;9.50;;
65463;SDS011;52063;45.110;9.870;2023-03-02T08:23:22;11.17;;;9.97;;
65463;SDS011;52063;45.110;9.870;2023-03-02T08:25:48;11.48;;;10.38;;
65463;SDS011;52063;45.110;9.870;2023-03-02T08:28:14;11.60;;;10.40;;
65463;SDS011;52063;45.110;9.870;2023-03-02T08:30:39;13.10;;;11.00;;
65463;SDS011;52063;45.110;9.870;2023-03-02T08:33:05;13.13;;;10.87;;
65463;SDS011;52063;45.110;9.870;2023-03-02T08:35:30;12.40;;;11.03;;
65463;SDS011;52063;45.110;9.870;2023-03-02T08:37:56;13.57;;;12.13;;
65463;SDS011;52063;45.110;9.870;2023-03-02T08:40:24;13.43;;;12.10;;
65463;SDS011;52063;45.110;9.870;2023-03-02T08:42:50;13.83;;;12.43;;
65463;SDS011;52063;45.110;9.870;2023-03-02T08:45:21;15.48;;;13.00;;
65463;SDS011;52063;45.110;9.870;2023-03-02T08:47:48;15.23;;;13.38;;
65463;SDS011;52063;45.110;9.870;2023-03-02T08:50:13;14.13;;;12.70;;
65463;SDS011;52063;45.110;9.870;2023-03-02T08:52:39;14.38;;;12.55;;
65463;SDS011;52063;45.110;9.870;2023-03-02T08:55:04;14.47;;;13.00;;
65463;SDS011;52063;45.110;9.870;2023-03-02T08:57:30;15.95;;;13.73;;
65463;SDS011;52063;45.110;9.870;2023-03-02T08:59:56;17.27;;;14.70;;
65463;SDS011;52063;45.110;9.870;2023-03-02T09:02:21;17.27;;;15.47;;
65463;SDS011;52063;45.110;9.870;2023-03-02T09:04:47;16.83;;;15.13;;
65463;SDS011;52063;45.110;9.870;2023-03-02T09:07:12;17.30;;;15.50;;
65463;SDS011;52063;45.110;9.870;2023-03-02T09:09:41;17.75;;;15.40;;
65463;SDS011;52063;45.110;9.870;2023-03-02T09:12:07;16.63;;;14.73;;
65463;SDS011;52063;45.110;9.870;2023-03-02T09:14:32;16.75;;;14.95;;
65463;SDS011;52063;45.110;9.870;2023-03-02T09:16:58;18.73;;;15.67;;
65463;SDS011;52063;45.110;9.870;2023-03-02T09:19:23;17.60;;;15.70;;
65463;SDS011;52063;45.110;9.870;2023-03-02T09:21:49;19.23;;;15.70;;
65463;SDS011;52063;45.110;9.870;2023-03-02T09:24:14;16.47;;;14.77;;
65463;SDS011;52063;45.110;9.870;2023-03-02T09:26:40;19.23;;;16.97;;
65463;SDS011;52063;45.110;9.870;2023-03-02T09:29:05;20.60;;;17.23;;
65463;SDS011;52063;45.110;9.870;2023-03-02T09:31:31;21.00;;;16.42;;
65463;SDS011;52063;45.110;9.870;2023-03-02T09:33:57;21.77;;;17.67;;
65463;SDS011;52063;45.110;9.870;2023-03-02T09:36:23;20.40;;;16.70;;
65463;SDS011;52063;45.110;9.870;2023-03-02T09:38:49;19.30;;;16.15;;
65463;SDS011;52063;45.110;9.870;2023-03-02T09:41:39;19.05;;;17.05;;
65463;SDS011;52063;45.110;9.870;2023-03-02T09:47:04;19.63;;;16.93;;
65463;SDS011;52063;45.110;9.870;2023-03-02T09:52:20;19.17;;;16.95;;
65463;SDS011;52063;45.110;9.870;2023-03-02T09:54:53;19.88;;;17.27;;
65463;SDS011;52063;45.110;9.870;2023-03-02T09:57:20;19.63;;;16.85;;
65463;SDS011;52063;45.110;9.870;2023-03-02T09:59:56;20.27;;;16.40;;
65463;SDS011;52063;45.110;9.870;2023-03-02T10:02:28;19.52;;;16.98;;
65463;SDS011;52063;45.110;9.870;2023-03-02T10:04:56;20.55;;;17.02;;
65463;SDS011;52063;45.110;9.870;2023-03-02T10:07:28;19.60;;;16.35;;
65463;SDS011;52063;45.110;9.870;2023-03-02T10:09:55;19.85;;;17.85;;
65463;SDS011;52063;45.110;9.870;2023-03-02T10:15:09;20.13;;;16.58;;
65463;SDS011;52063;45.110;9.870;2023-03-02T10:17:45;16.30;;;14.60;;
65463;SDS011;52063;45.110;9.870;2023-03-02T10:20:41;18.92;;;16.60;;
65463;SDS011;52063;45.110;9.870;2023-03-02T10:23:25;19.48;;;17.45;;
65463;SDS011;52063;45.110;9.870;2023-03-02T10:25:59;19.20;;;17.10;;
65463;SDS011;52063;45.110;9.870;2023-03-02T10:28:33;20.67;;;17.02;;
65463;SDS011;52063;45.110;9.870;2023-03-02T10:31:06;18.77;;;16.60;;
65463;SDS011;52063;45.110;9.870;2023-03-02T10:33:34;18.77;;;16.77;;
65463;SDS011;52063;45.110;9.870;2023-03-02T10:36:01;19.83;;;17.15;;
65463;SDS011;52063;45.110;9.870;2023-03-02T10:38:30;19.60;;;16.10;;
65463;SDS011;52063;45.110;9.870;2023-03-02T10:40:59;20.23;;;17.75;;
65463;SDS011;52063;45.110;9.870;2023-03-02T10:45:58;19.38;;;17.15;;
65463;SDS011;52063;45.110;9.870;2023-03-02T10:48:25;19.77;;;17.30;;
65463;SDS011;52063;45.110;9.870;2023-03-02T10:50:52;18.20;;;16.23;;
65463;SDS011;52063;45.110;9.870;2023-03-02T10:53:18;20.60;;;17.45;;
65463;SDS011;52063;45.110;9.870;2023-03-02T10:55:44;20.93;;;17.77;;
65463;SDS011;52063;45.110;9.870;2023-03-02T11:01:00;19.55;;;17.40;;
65463;SDS011;52063;45.110;9.870;2023-03-02T11:03:27;19.23;;;17.03;;
65463;SDS011;52063;45.110;9.870;2023-03-02T11:05:53;18.77;;;16.65;;
65463;SDS011;52063;45.110;9.870;2023-03-02T11:08:26;19.97;;;16.93;;
65463;SDS011;52063;45.110;9.870;2023-03-02T11:10:56;20.75;;;17.52;;
65463;SDS011;52063;45.110;9.870;2023-03-02T11:15:54;20.35;;;17.02;;
65463;SDS011;52063;45.110;9.870;2023-03-02T11:18:30;21.23;;;18.30;;
65463;SDS011;52063;45.110;9.870;2023-03-02T11:21:12;21.70;;;18.30;;
65463;SDS011;52063;45.110;9.870;2023-03-02T11:32:19;22.67;;;17.87;;
65463;SDS011;52063;45.110;9.870;2023-03-02T11:34:46;19.15;;;17.00;;
65463;SDS011;52063;45.110;9.870;2023-03-02T11:37:33;19.50;;;17.20;;
65463;SDS011;52063;45.110;9.870;2023-03-02T11:40:04;22.05;;;18.60;;
65463;SDS011;52063;45.110;9.870;2023-03-02T11:42:42;21.00;;;16.40;;
65463;SDS011;52063;45.110;9.870;2023-03-02T11:47:37;19.65;;;17.55;;
65463;SDS011;52063;45.110;9.870;2023-03-02T11:50:04;22.27;;;17.88;;
65463;SDS011;52063;45.110;9.870;2023-03-02T11:52:32;21.70;;;18.05;;
65463;SDS011;52063;45.110;9.870;2023-03-02T11:55:05;21.73;;;17.38;;
65463;SDS011;52063;45.110;9.870;2023-03-02T11:57:48;20.80;;;17.10;;
65463;SDS011;52063;45.110;9.870;2023-03-02T12:02:59;19.13;;;16.92;;
65463;SDS011;52063;45.110;9.870;2023-03-02T12:05:26;21.45;;;15.95;;
65463;SDS011;52063;45.110;9.870;2023-03-02T12:08:00;18.60;;;16.60;;
65463;SDS011;52063;45.110;9.870;2023-03-02T12:13:00;21.02;;;17.92;;
65463;SDS011;52063;45.110;9.870;2023-03-02T12:15:35;19.38;;;17.17;;
65463;SDS011;52063;45.110;9.870;2023-03-02T12:18:45;19.33;;;16.05;;
65463;SDS011;52063;45.110;9.870;2023-03-02T12:23:28;21.67;;;17.63;;
65463;SDS011;52063;45.110;9.870;2023-03-02T12:26:29;21.48;;;17.73;;
65463;SDS011;52063;45.110;9.870;2023-03-02T12:31:48;18.58;;;15.73;;
65463;SDS011;52063;45.110;9.870;2023-03-02T12:34:35;18.75;;;15.90;;
65463;SDS011;52063;45.110;9.870;2023-03-02T12:37:22;18.03;;;15.40;;
65463;SDS011;52063;45.110;9.870;2023-03-02T12:48:03;16.83;;;14.68;;
65463;SDS011;52063;45.110;9.870;2023-03-02T12:50:47;19.40;;;15.33;;
65463;SDS011;52063;45.110;9.870;2023-03-02T12:53:16;19.00;;;14.88;;
65463;SDS011;52063;45.110;9.870;2023-03-02T12:55:43;15.27;;;13.48;;
65463;SDS011;52063;45.110;9.870;2023-03-02T12:58:27;17.23;;;13.60;;
65463;SDS011;52063;45.110;9.870;2023-03-02T13:00:58;17.10;;;14.55;;
65463;SDS011;52063;45.110;9.870;2023-03-02T13:03:25;16.33;;;13.47;;
65463;SDS011;52063;45.110;9.870;2023-03-02T13:06:02;15.38;;;12.75;;
65463;SDS011;52063;45.110;9.870;2023-03-02T13:08:29;17.35;;;13.68;;
65463;SDS011;52063;45.110;9.870;2023-03-02T13:10:55;15.50;;;12.73;;
65463;SDS011;52063;45.110;9.870;2023-03-02T13:15:53;13.77;;;11.93;;
65463;SDS011;52063;45.110;9.870;2023-03-02T13:18:20;14.75;;;12.65;;
65463;SDS011;52063;45.110;9.870;2023-03-02T13:20:46;14.40;;;12.15;;
65463;SDS011;52063;45.110;9.870;2023-03-02T13:23:12;18.38;;;12.40;;
65463;SDS011;52063;45.110;9.870;2023-03-02T13:28:33;13.73;;;11.90;;
65463;SDS011;52063;45.110;9.870;2023-03-02T13:31:01;13.40;;;11.55;;
65463;SDS011;52063;45.110;9.870;2023-03-02T13:33:32;14.65;;;11.40;;
65463;SDS011;52063;45.110;9.870;2023-03-02T13:35:58;14.45;;;11.05;;
65463;SDS011;52063;45.110;9.870;2023-03-02T13:38:26;12.10;;;10.77;;
65463;SDS011;52063;45.110;9.870;2023-03-02T13:41:02;12.98;;;10.80;;
65463;SDS011;52063;45.110;9.870;2023-03-02T13:45:54;11.90;;;10.10;;
65463;SDS011;52063;45.110;9.870;2023-03-02T13:48:21;13.50;;;10.95;;
65463;SDS011;52063;45.110;9.870;2023-03-02T13:50:51;15.73;;;11.40;;
65463;SDS011;52063;45.110;9.870;2023-03-02T13:53:18;15.32;;;11.48;;
65463;SDS011;52063;45.110;9.870;2023-03-02T13:55:44;13.80;;;9.88;;
65463;SDS011;52063;45.110;9.870;2023-03-02T13:58:12;12.50;;;9.03;;
65463;SDS011;52063;45.110;9.870;2023-03-02T14:00:42;10.38;;;9.27;;
65463;SDS011;52063;45.110;9.870;2023-03-02T14:03:27;12.93;;;9.77;;
65463;SDS011;52063;45.110;9.870;2023-03-02T14:05:54;11.60;;;10.00;;
65463;SDS011;52063;45.110;9.870;2023-03-02T14:08:20;10.10;;;8.85;;
65463;SDS011;52063;45.110;9.870;2023-03-02T14:10:45;11.03;;;9.30;;
65463;SDS011;52063;45.110;9.870;2023-03-02T14:13:16;10.93;;;9.18;;
65463;SDS011;52063;45.110;9.870;2023-03-02T14:15:47;15.85;;;9.68;;
65463;SDS011;52063;45.110;9.870;2023-03-02T14:21:03;10.03;;;9.00;;
65463;SDS011;52063;45.110;9.870;2023-03-02T14:23:29;11.70;;;9.25;;
65463;SDS011;52063;45.110;9.870;2023-03-02T14:25:55;9.90;;;8.90;;
65463;SDS011;52063;45.110;9.870;2023-03-02T14:28:25;10.32;;;8.73;;
65463;SDS011;52063;45.110;9.870;2023-03-02T14:30:54;12.15;;;8.55;;
65463;SDS011;52063;45.110;9.870;2023-03-02T14:33:20;10.77;;;9.45;;
65463;SDS011;52063;45.110;9.870;2023-03-02T14:35:47;9.43;;;8.45;;
65463;SDS011;52063;45.110;9.870;2023-03-02T14:38:13;9.10;;;8.17;;
65463;SDS011;52063;45.110;9.870;2023-03-02T14:40:38;9.57;;;8.32;;
65463;SDS011;52063;45.110;9.870;2023-03-02T14:43:04;10.23;;;8.37;;
65463;SDS011;52063;45.110;9.870;2023-03-02T14:45:29;11.03;;;8.73;;
65463;SDS011;52063;45.110;9.870;2023-03-02T14:47:55;10.48;;;8.35;;
65463;SDS011;52063;45.110;9.870;2023-03-02T14:50:20;10.63;;;7.83;;
65463;SDS011;52063;45.110;9.870;2023-03-02T14:52:49;8.67;;;7.67;;
65463;SDS011;52063;45.110;9.870;2023-03-02T14:57:58;10.10;;;7.63;;
65463;SDS011;52063;45.110;9.870;2023-03-02T15:00:27;8.57;;;7.70;;
65463;SDS011;52063;45.110;9.870;2023-03-02T15:02:52;9.10;;;7.57;;
65463;SDS011;52063;45.110;9.870;2023-03-02T15:05:18;8.57;;;7.13;;
65463;SDS011;52063;45.110;9.870;2023-03-02T15:07:44;10.13;;;7.37;;
65463;SDS011;52063;45.110;9.870;2023-03-02T15:10:13;8.63;;;7.23;;
65463;SDS011;52063;45.110;9.870;2023-03-02T15:12:41;8.55;;;7.63;;
65463;SDS011;52063;45.110;9.870;2023-03-02T15:15:06;10.27;;;7.67;;
65463;SDS011;52063;45.110;9.870;2023-03-02T15:17:33;8.15;;;7.15;;
65463;SDS011;52063;45.110;9.870;2023-03-02T15:19:58;9.40;;;7.27;;
65463;SDS011;52063;45.110;9.870;2023-03-02T15:22:24;9.75;;;6.75;;
65463;SDS011;52063;45.110;9.870;2023-03-02T15:24:49;8.63;;;6.83;;
65463;SDS011;52063;45.110;9.870;2023-03-02T15:27:15;7.13;;;6.45;;
65463;SDS011;52063;45.110;9.870;2023-03-02T15:29:46;10.20;;;7.77;;
65463;SDS011;52063;45.110;9.870;2023-03-02T15:32:12;7.03;;;6.32;;
65463;SDS011;52063;45.110;9.870;2023-03-02T15:34:37;8.30;;;6.43;;
65463;SDS011;52063;45.110;9.870;2023-03-02T15:37:03;6.78;;;6.15;;
65463;SDS011;52063;45.110;9.870;2023-03-02T15:39:28;7.47;;;6.60;;
65463;SDS011;52063;45.110;9.870;2023-03-02T15:41:54;7.17;;;6.13;;
65463;SDS011;52063;45.110;9.870;2023-03-02T15:44:20;6.40;;;5.80;;
65463;SDS011;52063;45.110;9.870;2023-03-02T15:46:48;7.68;;;6.53;;
65463;SDS011;52063;45.110;9.870;2023-03-02T15:49:14;7.30;;;6.25;;
65463;SDS011;52063;45.110;9.870;2023-03-02T15:51:39;6.70;;;6.10;;